Flight Track Log - Related Links

Times and Time Zones

All times are in EDT time to prevent confusion due to time zone crossing. See the OPT452 flight status page for this flight to view local times or setup timezone preferences in your user account.

Time Position Orientation Groundspeed Altitude Reporting Facility
EDT Latitude Longitude Course Direction KTS MPH feet Rate Location/Type
Fri 03:51:32 PM 35.8561 -78.8083 197° South 178 205 1,500  Level Washington Center
Fri 03:52:15 PM 35.8183 -78.8222 197° South 217 250 3,400 2,750 Climbing Washington Center
Fri 03:53:08 PM 35.7636 -78.8378 193° South 227 261 5,900 3,080 Climbing Washington Center
Fri 03:54:08 PM 35.7056 -78.8228 168° South 245 282 9,200 3,000 Climbing Washington Center
Fri 03:55:08 PM 35.6569 -78.7747 141° Southeast 255 293 11,900 2,050 Climbing Washington Center
Fri 03:56:08 PM 35.6019 -78.7189 140° Southeast 255 293 13,300 2,100 Climbing Washington Center
Fri 03:57:08 PM 35.5428 -78.6628 142° Southeast 260 299 16,100 2,350 Climbing Washington Center
Fri 03:58:08 PM 35.4858 -78.6097 143° Southeast 265 305 18,000 1,850 Climbing Washington Center
Fri 03:59:08 PM 35.4164 -78.6300 193° South 241 277 19,800 1,550 Climbing Washington Center
Fri 04:00:08 PM 35.3447 -78.6631 201° Southwest 252 290 21,100 1,100 Climbing Washington Center
Fri 04:01:08 PM 35.2686 -78.7033 203° Southwest 285 328 22,000 450 Climbing Washington Center
Fri 04:02:08 PM 35.1839 -78.7458 202° Southwest 307 353 22,000  Level Washington Center
Fri 04:03:08 PM 35.0950 -78.7931 203° Southwest 337 388 22,000  Level Washington Center
Fri 04:04:08 PM 35.0061 -78.8403 204° Southwest 345 397 22,000  Level Washington Center
Fri 04:05:08 PM 34.9172 -78.8872 203° Southwest 350 403 22,000  Level Washington Center
Fri 04:06:08 PM 34.8283 -78.9317 202° Southwest 350 403 22,000  Level Washington Center
Fri 04:07:08 PM 34.7417 -78.9764 203° Southwest 350 403 22,000  Level Washington Center
Fri 04:09:07 PM 34.5650 -79.0678 203° Southwest 344 396 22,000  Level Jacksonville Center
Fri 04:10:07 PM 34.4767 -79.1172 205° Southwest 344 396 22,000  Level Jacksonville Center
Fri 04:11:07 PM 34.3883 -79.1586 201° Southwest 349 402 22,000  Level Jacksonville Center
Fri 04:12:07 PM 34.3000 -79.2053 204° Southwest 349 402 22,000 -250 Level Jacksonville Center
Fri 04:13:07 PM 34.2114 -79.2467 201° Southwest 349 402 21,500 -1,041 Descending Jacksonville Center
Fri 04:14:08 PM 34.1169 -79.2958 203° Southwest 356 410 19,900 -1,700 Descending Jacksonville Center
Fri 04:15:07 PM 34.0222 -79.3447 203° Southwest 361 415 18,100 -1,500 Descending Jacksonville Center
Fri 04:16:08 PM 33.9400 -79.3881 204° Southwest 355 409 16,900 -700 Descending Jacksonville Center
Fri 04:17:07 PM 33.8578 -79.4264 201° Southwest 341 392 16,700 -200 Descending Jacksonville Center
Fri 04:18:08 PM 33.7794 -79.4669 203° Southwest 323 372 16,500 -200 Descending Jacksonville Center
Fri 04:19:07 PM 33.6969 -79.5050 201° Southwest 323 372 16,300 -252 Descending Jacksonville Center
Fri 04:20:07 PM 33.6147 -79.5481 204° Southwest 323 372 16,000 -694 Descending Jacksonville Center
Fri 04:21:08 PM 33.5303 -79.5911 203° Southwest 323 372 14,900 -1,190 Descending Jacksonville Center
Fri 04:22:08 PM 33.4500 -79.6317 203° Southwest 323 372 13,600 -1,261 Descending Jacksonville Center
Fri 04:23:07 PM 33.3694 -79.6692 201° Southwest 323 372 12,400 -1,650 Descending Jacksonville Center
Fri 04:24:08 PM 33.2956 -79.7092 204° Southwest 311 358 10,300 -2,100 Descending Jacksonville Center
Fri 04:25:07 PM 33.2272 -79.7389 200° South 287 330 8,200 -2,118 Descending Jacksonville Center
Fri 04:26:07 PM 33.1583 -79.7317 175° South 253 291 6,100 -2,100 Descending Jacksonville Center
Fri 04:27:07 PM 33.0933 -79.7264 176° South 246 283 4,000 -1,550 Descending Jacksonville Center
Fri 04:28:07 PM 33.0375 -79.7408 192° South 232 267 3,000 -500 Descending Jacksonville Center
Fri 04:29:07 PM 32.9817 -79.7625 198° South 221 254 3,000  Level Jacksonville Center
Fri 04:31:00 PM 32.8592 -79.8678 203° Southwest  Level Estimated
Fri 04:38:00 PM 32.7000 -80.0000 212° Southwest  Level FlightAware Approximate
Fri 04:39:00 PM 32.7010 -80.0033 212° Southwest  Level Estimated
Fri 04:40:00 PM 32.7000 -80.0000 212° Southwest  Level FlightAware Approximate

Login

Don't have an account? Register now (free) for customized features, flight alerts, and more!